Time;durP1;ratioP1;P1;durP2;ratioP2;P2;SDS_P1;SDS_P2;PMS_P1;PMS_P2;Temp;Humidity;BMP_temperature;BMP_pressure;BME280_temperature;BME280_humidity;BME280_pressure;Samples;Min_cycle;Max_cycle;Signal;HPM_P1;HPM_P2
2021/09/19 00:01:14;;;;;;;;;;;;;;;13.01;68.57;98044.33;115541;1218;123870;-80
2021/09/19 00:04:20;;;;;;;;;;;;;;;13.07;68.61;98052.23;115564;1218;123965;-81
2021/09/19 00:13:46;;;;;;;;;;;;;;;;;;;;;
2021/09/19 00:16:46;;;;;;;;;;;;;;;;;;;;;
2021/09/19 00:20:15;;;;;;;;;;;;;;;12.93;68.09;98044.88;115521;1218;123810;-81
2021/09/19 00:23:04;;;;;;;;;;;;;;;12.88;68.29;98046.54;115545;1218;123872;-80
2021/09/19 00:26:04;;;;;;;;;;;;;;;;;;;;;
2021/09/19 00:29:11;;;;;;;;;;;;;;;12.80;68.50;98040.77;115565;1218;123929;-81
2021/09/19 00:32:16;;;;;;;;;;;;;;;12.74;68.52;98038.79;115546;1218;123839;-81
2021/09/19 00:35:23;;;;;;;;;;;;;;;12.69;68.57;98039.40;115558;1217;123873;-81
2021/09/19 00:38:30;;;;;;;;;;;;;;;12.64;68.79;98041.00;115521;1218;123674;-82
2021/09/19 00:44:52;;;;;;;;;;;;;;;12.55;68.93;98041.75;115418;1218;122860;-81
2021/09/19 00:47:42;;;;;;;;;;;;;;;12.51;68.98;98038.66;115540;1218;123756;-81
2021/09/19 00:50:44;;;;;;;;;;;;;;;;;;;;;
2021/09/19 00:53:49;;;;;;;;;;;;;;;;;;;;;
2021/09/19 00:56:57;;;;;;;;;;;;;;;12.38;69.44;98040.00;115471;1218;123766;-81
2021/09/19 01:00:02;;;;;;;;;;;;;;;12.31;69.63;98039.70;115545;1218;124075;-82
2021/09/19 01:02:27;;;;;;;;;;;;;;;12.34;69.71;98040.64;115384;1190;124487;-81
2021/09/19 01:04:53;;;;;;;;;;;;;;;12.35;69.80;98039.61;115420;1218;124623;-81
2021/09/19 01:07:18;;;;;;;;;;;;;;;12.39;69.97;98041.52;115445;1213;124624;-81
2021/09/19 01:09:43;;;;;;;;;;;;;;;12.46;70.08;98043.47;115453;1219;22420;-81
2021/09/19 01:12:10;;;;;;;;;;;;;;;12.51;70.09;98043.77;115356;1216;124062;-81
2021/09/19 01:14:41;;;;;;;;;;;;;;;12.57;70.00;98047.77;115419;1219;123740;-81
2021/09/19 01:17:06;;;;;;;;;;;;;;;12.62;69.76;98050.78;115452;1217;123855;-81
2021/09/19 01:19:32;;;;;;;;;;;;;;;12.65;69.74;98050.52;115319;1219;124102;-81
2021/09/19 01:21:58;;;;;;;;;;;;;;;12.66;69.39;98052.95;115423;1217;123772;-81
2021/09/19 01:24:26;;;;;;;;;;;;;;;12.65;69.40;98051.67;115465;1216;22356;-81
2021/09/19 01:26:51;;;;;;;;;;;;;;;12.63;69.26;98048.20;115469;1217;123642;-81
2021/09/19 01:29:17;;;;;;;;;;;;;;;12.60;69.17;98041.36;115355;1219;123707;-81
2021/09/19 01:31:42;;;;;;;;;;;;;;;12.56;69.24;98041.54;115320;1217;124160;-81
2021/09/19 01:34:07;;;;;;;;;;;;;;;12.52;69.41;98039.86;115403;1216;123922;-81
2021/09/19 01:36:35;;;;;;;;;;;;;;;12.47;69.51;98037.67;115542;1211;22353;-81
2021/09/19 01:39:01;;;;;;;;;;;;;;;12.43;69.61;98042.45;115419;1212;123626;-81
2021/09/19 01:41:26;;;;;;;;;;;;;;;12.38;69.67;98039.27;115465;1216;123873;-81
2021/09/19 01:43:53;;;;;;;;;;;;;;;12.34;69.74;98032.77;115323;1218;123901;-81
2021/09/19 01:46:19;;;;;;;;;;;;;;;12.29;69.83;98028.00;115475;1206;124069;-81
2021/09/19 01:48:44;;;;;;;;;;;;;;;12.26;70.01;98033.26;115560;1213;22343;-81
2021/09/19 01:51:09;;;;;;;;;;;;;;;12.23;70.06;98030.89;115473;1213;123496;-81
2021/09/19 01:53:35;;;;;;;;;;;;;;;12.20;70.14;98035.34;115431;1216;123876;-80
2021/09/19 01:56:01;;;;;;;;;;;;;;;12.16;70.24;98034.02;115389;1218;123718;-80
2021/09/19 01:58:26;;;;;;;;;;;;;;;12.13;70.35;98032.67;115359;1216;123961;-80
2021/09/19 02:00:56;;;;;;;;;;;;;;;12.10;70.41;98037.05;115526;1217;22425;-80
2021/09/19 02:03:21;;;;;;;;;;;;;;;12.06;70.44;98031.03;115421;1216;123345;-80
2021/09/19 02:05:46;;;;;;;;;;;;;;;12.03;70.63;98030.01;115465;1216;123667;-80
2021/09/19 02:08:12;;;;;;;;;;;;;;;12.00;70.73;98026.34;115472;1207;123728;-80
2021/09/19 02:10:37;;;;;;;;;;;;;;;11.98;70.70;98024.78;115464;1217;124260;-80
2021/09/19 02:13:02;;;;;;;;;;;;;;;11.98;70.84;98023.11;115479;1213;124828;-80
2021/09/19 02:15:28;;;;;;;;;;;;;;;12.00;70.96;98017.87;115580;1218;23081;-80
2021/09/19 02:17:53;;;;;;;;;;;;;;;12.05;71.21;98015.91;115451;1213;124158;-80
2021/09/19 02:20:18;;;;;;;;;;;;;;;12.12;71.39;98019.98;115453;1216;124388;-80
2021/09/19 02:22:44;;;;;;;;;;;;;;;12.18;71.52;98014.54;115467;1212;124020;-80
2021/09/19 02:25:10;;;;;;;;;;;;;;;12.24;71.50;98013.89;115462;1218;124434;-80
2021/09/19 02:27:36;;;;;;;;;;;;;;;12.28;71.44;98007.42;115562;1217;22385;-80
2021/09/19 02:30:03;;;;;;;;;;;;;;;12.33;71.52;98009.61;115460;1218;123496;-80
2021/09/19 02:32:29;;;;;;;;;;;;;;;12.36;71.52;98006.86;115461;1218;123932;-80
2021/09/19 02:34:54;;;;;;;;;;;;;;;12.38;71.30;98007.48;115510;1216;123818;-81
2021/09/19 02:37:20;;;;;;;;;;;;;;;12.39;71.18;98006.81;115487;1218;124308;-80
2021/09/19 02:39:45;;;;;;;;;;;;;;;12.40;71.24;98012.10;115574;1213;22341;-80
2021/09/19 02:42:10;;;;;;;;;;;;;;;12.38;71.09;98005.25;115442;1216;124044;-80
2021/09/19 02:44:36;;;;;;;;;;;;;;;12.34;70.86;98002.02;115537;1217;124089;-80
2021/09/19 02:47:01;;;;;;;;;;;;;;;12.30;71.21;98005.41;115445;1217;124053;-80
2021/09/19 02:49:26;;;;;;;;;;;;;;;12.28;71.30;97997.61;115481;1213;123905;-80
2021/09/19 02:51:52;;;;;;;;;;;;;;;12.25;71.27;97998.45;115555;1213;22385;-80
2021/09/19 02:54:17;;;;;;;;;;;;;;;12.23;71.25;97992.89;115476;1217;123261;-80
2021/09/19 02:56:43;;;;;;;;;;;;;;;12.20;71.26;97996.40;115349;1216;123885;-80
2021/09/19 02:59:08;;;;;;;;;;;;;;;12.17;71.30;97995.98;115444;1217;123656;-79
2021/09/19 03:01:33;;;;;;;;;;;;;;;12.14;71.21;97995.84;115462;1213;123864;-80
2021/09/19 03:03:59;;;;;;;;;;;;;;;12.09;71.29;97992.60;115480;1212;123854;-80
2021/09/19 03:06:26;;;;;;;;;;;;;;;12.05;71.28;97995.14;115571;1218;22332;-80
2021/09/19 03:08:52;;;;;;;;;;;;;;;12.02;71.33;97998.81;115455;1217;124009;-80
2021/09/19 03:11:17;;;;;;;;;;;;;;;12.01;71.33;98000.77;115479;1213;124376;-80
2021/09/19 03:13:43;;;;;;;;;;;;;;;12.03;71.49;98004.33;115471;1213;124338;-80
2021/09/19 03:16:08;;;;;;;;;;;;;;;12.08;71.77;98000.17;115461;1213;124608;-81
2021/09/19 03:18:33;;;;;;;;;;;;;;;12.14;71.90;98001.80;115578;1213;22385;-81
2021/09/19 03:20:59;;;;;;;;;;;;;;;12.19;71.97;98000.38;115482;1213;124021;-81
2021/09/19 03:23:25;;;;;;;;;;;;;;;12.26;72.06;97998.64;115511;1212;123680;-81
2021/09/19 03:25:50;;;;;;;;;;;;;;;12.32;71.89;97993.98;115445;1213;123965;-81
2021/09/19 03:28:15;;;;;;;;;;;;;;;12.37;71.82;97999.16;115478;1213;123768;-81
2021/09/19 03:30:41;;;;;;;;;;;;;;;12.38;71.76;97992.64;115567;1216;22444;-81
2021/09/19 03:33:06;;;;;;;;;;;;;;;12.39;71.71;97991.52;115479;1216;123603;-80
2021/09/19 03:35:31;;;;;;;;;;;;;;;12.37;71.74;97997.89;115460;1216;123926;-80
2021/09/19 03:37:57;;;;;;;;;;;;;;;12.37;71.66;97998.48;115489;1216;123644;-80
2021/09/19 03:40:22;;;;;;;;;;;;;;;12.36;71.66;97992.98;115478;1216;123852;-80
2021/09/19 03:42:50;;;;;;;;;;;;;;;12.35;71.66;97994.00;115578;1218;22423;-81
2021/09/19 03:45:15;;;;;;;;;;;;;;;12.33;71.70;97994.23;115465;1218;124179;-81
2021/09/19 03:47:41;;;;;;;;;;;;;;;12.30;71.87;97992.90;115444;1218;124624;-80
2021/09/19 03:50:07;;;;;;;;;;;;;;;12.27;72.01;97989.88;115437;1213;124410;-80
2021/09/19 03:52:32;;;;;;;;;;;;;;;12.25;72.06;97989.50;115471;1216;124123;-80
2021/09/19 03:54:58;;;;;;;;;;;;;;;12.23;72.21;97988.27;115451;1216;123900;-80
2021/09/19 03:57:24;;;;;;;;;;;;;;;12.21;72.15;97985.79;115572;1213;22424;-80
2021/09/19 03:59:49;;;;;;;;;;;;;;;12.17;72.31;97986.73;115455;1218;123517;-81
2021/09/19 04:02:15;;;;;;;;;;;;;;;12.16;72.35;97981.84;115472;1217;124198;-81
2021/09/19 04:04:40;;;;;;;;;;;;;;;12.18;72.34;97989.08;115488;1213;125110;-81
2021/09/19 04:07:05;;;;;;;;;;;;;;;12.20;72.58;97992.55;115440;1213;124474;-81
2021/09/19 04:09:31;;;;;;;;;;;;;;;12.21;72.67;97988.48;115570;1216;22411;-81
2021/09/19 04:11:56;;;;;;;;;;;;;;;12.26;72.71;97990.16;115456;1216;124363;-81
2021/09/19 04:14:23;;;;;;;;;;;;;;;12.33;72.71;97992.71;115472;1218;124099;-81
2021/09/19 04:16:48;;;;;;;;;;;;;;;12.38;72.66;97992.66;115381;1217;123657;-82
2021/09/19 04:19:14;;;;;;;;;;;;;;;12.40;72.51;97994.66;115446;1215;123997;-81
2021/09/19 04:21:39;;;;;;;;;;;;;;;12.41;72.60;98000.98;115564;1213;22366;-80
2021/09/19 04:24:04;;;;;;;;;;;;;;;12.42;72.57;97998.27;115455;1218;123815;-80
2021/09/19 04:26:30;;;;;;;;;;;;;;;12.42;72.30;98002.31;115486;1216;123777;-80
2021/09/19 04:28:55;;;;;;;;;;;;;;;12.43;72.19;98003.27;115455;1218;123704;-81
2021/09/19 04:31:20;;;;;;;;;;;;;;;12.42;72.19;98003.10;115464;1213;124165;-81
2021/09/19 04:33:46;;;;;;;;;;;;;;;12.38;72.25;98001.31;115561;1216;22441;-81
2021/09/19 04:36:11;;;;;;;;;;;;;;;12.34;72.30;98004.36;115462;1213;123560;-81
2021/09/19 04:38:37;;;;;;;;;;;;;;;12.31;72.21;98003.27;115413;1217;123640;-81
2021/09/19 04:41:02;;;;;;;;;;;;;;;12.29;72.25;98005.39;115450;1217;123765;-81
2021/09/19 04:43:27;;;;;;;;;;;;;;;12.28;72.31;98009.89;115463;1216;123828;-81
2021/09/19 04:45:53;;;;;;;;;;;;;;;12.26;72.29;98005.50;115553;1218;22407;-81
2021/09/19 04:48:19;;;;;;;;;;;;;;;12.24;72.29;98003.80;115485;1216;123711;-81
2021/09/19 04:50:45;;;;;;;;;;;;;;;12.23;72.37;98010.39;115501;1217;123618;-81
2021/09/19 04:53:10;;;;;;;;;;;;;;;12.21;72.49;98004.01;115440;1218;123987;-80
2021/09/19 04:55:36;;;;;;;;;;;;;;;12.20;72.46;98002.87;115471;1212;124338;-80
2021/09/19 04:58:01;;;;;;;;;;;;;;;12.21;72.46;98011.33;115448;1216;125035;-80
2021/09/19 05:00:27;;;;;;;;;;;;;;;12.25;72.62;98009.27;115569;1212;22985;-83
2021/09/19 05:02:52;;;;;;;;;;;;;;;12.32;72.68;98009.17;115440;1213;124319;-82
2021/09/19 05:05:18;;;;;;;;;;;;;;;12.38;72.79;98006.72;115461;1217;124461;-83
2021/09/19 05:07:43;;;;;;;;;;;;;;;12.46;72.81;98013.34;115345;1217;124306;-82
2021/09/19 05:10:09;;;;;;;;;;;;;;;12.56;72.99;98015.91;115445;1211;123747;-83
2021/09/19 05:12:35;;;;;;;;;;;;;;;12.64;72.86;98015.74;115506;1213;22365;-83
2021/09/19 05:15:00;;;;;;;;;;;;;;;12.72;72.78;98020.21;115456;1217;123555;-82
2021/09/19 05:17:26;;;;;;;;;;;;;;;12.80;72.67;98017.95;115448;1216;123776;-84
2021/09/19 05:19:51;;;;;;;;;;;;;;;12.86;72.45;98023.77;115425;1213;124533;-83
2021/09/19 05:22:17;;;;;;;;;;;;;;;12.90;72.20;98019.29;115422;1213;124047;-81
2021/09/19 05:24:42;;;;;;;;;;;;;;;12.93;72.21;98021.19;115391;1217;22347;-84
2021/09/19 05:27:07;;;;;;;;;;;;;;;12.97;72.21;98028.10;115443;1212;123639;-83
2021/09/19 05:29:33;;;;;;;;;;;;;;;12.99;72.14;98024.92;115402;1217;123913;-82
2021/09/19 05:31:58;;;;;;;;;;;;;;;13.02;72.16;98025.58;115439;1216;123796;-83
2021/09/19 05:34:23;;;;;;;;;;;;;;;13.03;72.10;98028.40;115452;1215;124527;-85
2021/09/19 05:36:49;;;;;;;;;;;;;;;13.07;71.98;98027.98;115566;1217;22425;-85
2021/09/19 05:39:14;;;;;;;;;;;;;;;13.11;72.09;98026.52;115333;1218;123817;-83
2021/09/19 05:41:40;;;;;;;;;;;;;;;13.15;71.95;98025.94;115375;1217;123690;-83
2021/09/19 05:44:05;;;;;;;;;;;;;;;13.20;72.17;98024.33;115425;1213;124125;-83
2021/09/19 05:46:31;;;;;;;;;;;;;;;13.23;72.14;98030.41;115396;1217;123786;-83
2021/09/19 05:48:59;;;;;;;;;;;;;;;13.30;72.07;98035.95;115531;1217;23121;-83
2021/09/19 05:51:24;;;;;;;;;;;;;;;13.37;71.94;98036.89;115548;1218;22980;-83
2021/09/19 05:53:49;;;;;;;;;;;;;;;13.45;72.01;98038.27;115444;1217;124937;-83
2021/09/19 05:56:15;;;;;;;;;;;;;;;13.55;72.05;98038.52;115303;1216;124548;-83
2021/09/19 05:58:40;;;;;;;;;;;;;;;13.66;72.10;98037.70;115393;1218;125282;-83
2021/09/19 06:01:06;;;;;;;;;;;;;;;13.74;72.16;98042.21;115421;1213;123913;-83
2021/09/19 06:03:31;;;;;;;;;;;;;;;13.82;71.89;98037.80;115527;1212;22390;-83
2021/09/19 06:05:56;;;;;;;;;;;;;;;13.91;71.69;98036.73;115379;1216;123823;-83
2021/09/19 06:08:23;;;;;;;;;;;;;;;13.99;71.42;98036.73;115461;1213;123934;-86
2021/09/19 06:10:48;;;;;;;;;;;;;;;14.02;71.23;98035.91;115397;1217;124421;-79
2021/09/19 06:13:14;;;;;;;;;;;;;;;14.08;71.01;98036.30;115321;1215;124172;-84
2021/09/19 06:15:39;;;;;;;;;;;;;;;14.14;70.92;98030.87;115572;1217;22347;-83
2021/09/19 06:18:06;;;;;;;;;;;;;;;14.21;70.88;98036.18;115371;1212;123457;-84
2021/09/19 06:20:31;;;;;;;;;;;;;;;14.26;70.73;98039.18;115385;1215;125586;-84
2021/09/19 06:22:56;;;;;;;;;;;;;;;14.31;70.53;98032.90;115433;1216;123796;-83
2021/09/19 06:25:22;;;;;;;;;;;;;;;14.36;70.37;98030.04;115489;1212;123933;-84
2021/09/19 06:27:48;;;;;;;;;;;;;;;14.42;70.18;98026.64;115626;1217;22818;-84
2021/09/19 06:30:14;;;;;;;;;;;;;;;14.48;70.17;98024.98;115496;1218;123687;-84
2021/09/19 06:32:39;;;;;;;;;;;;;;;14.55;70.04;98024.27;115475;1215;123847;-84
2021/09/19 06:35:06;;;;;;;;;;;;;;;14.61;69.75;98020.95;115473;1217;123885;-83
2021/09/19 06:37:32;;;;;;;;;;;;;;;14.66;69.78;98019.61;115497;1212;124906;-84
2021/09/19 06:39:57;;;;;;;;;;;;;;;14.75;69.80;98021.09;115568;1215;22434;-84
2021/09/19 06:42:22;;;;;;;;;;;;;;;14.83;69.69;98016.22;115612;1215;22360;-84
2021/09/19 06:44:49;;;;;;;;;;;;;;;14.94;69.61;98022.80;115399;1217;123865;-84
2021/09/19 06:47:15;;;;;;;;;;;;;;;15.03;69.63;98023.18;115454;1214;123874;-84
2021/09/19 06:50:01;;;;;;;;;;;;;;;15.14;69.47;98020.23;115488;1216;123865;-87
2021/09/19 06:52:47;;;;;;;;;;;;;;;15.31;69.18;98025.91;115501;1218;123922;-87
2021/09/19 06:55:58;;;;;;;;;;;;;;;15.44;68.59;98028.52;115528;1217;123767;-88
2021/09/19 06:59:01;;;;;;;;;;;;;;;15.59;68.18;98028.17;115527;1206;123999;-87
2021/09/19 07:01:46;;;;;;;;;;;;;;;15.69;67.70;98026.20;115520;1216;123732;-85
2021/09/19 07:04:27;;;;;;;;;;;;;;;15.79;67.41;98022.71;115491;1214;123753;-87
2021/09/19 07:07:14;;;;;;;;;;;;;;;15.88;67.32;98025.25;115613;1213;22319;-86
2021/09/19 07:10:06;;;;;;;;;;;;;;;15.99;67.04;98031.31;115524;1217;123563;-86
2021/09/19 07:12:32;;;;;;;;;;;;;;;16.06;66.91;98035.81;115641;1217;22331;-86
2021/09/19 07:15:19;;;;;;;;;;;;;;;16.14;66.71;98038.58;115463;1214;123470;-86
2021/09/19 07:18:04;;;;;;;;;;;;;;;16.25;66.32;98039.43;115459;1214;123782;-85
2021/09/19 07:20:52;;;;;;;;;;;;;;;16.35;65.99;98041.13;115516;1216;123579;-86
2021/09/19 07:23:55;;;;;;;;;;;;;;;16.42;65.57;98038.17;115510;1217;124852;-86
2021/09/19 07:26:42;;;;;;;;;;;;;;;16.50;65.44;98038.88;115508;1214;124643;-86
2021/09/19 07:29:36;;;;;;;;;;;;;;;16.61;65.47;98034.60;115485;1217;124151;-86
2021/09/19 07:32:21;;;;;;;;;;;;;;;16.72;65.37;98039.26;115519;1217;123846;-86
2021/09/19 07:35:27;;;;;;;;;;;;;;;16.80;64.99;98047.08;115539;1217;123634;-86
2021/09/19 07:38:21;;;;;;;;;;;;;;;16.85;64.69;98048.17;115488;1213;123689;-87
2021/09/19 07:41:08;;;;;;;;;;;;;;;16.91;64.25;98049.22;115396;1213;124061;-87
2021/09/19 07:44:13;;;;;;;;;;;;;;;16.96;63.85;98052.42;115483;1217;123690;-86
2021/09/19 07:47:07;;;;;;;;;;;;;;;17.08;63.63;98058.79;115524;1217;123659;-87
2021/09/19 07:49:53;;;;;;;;;;;;;;;17.23;63.71;98056.19;115512;1216;123864;-87
2021/09/19 07:52:58;;;;;;;;;;;;;;;17.37;63.40;98063.14;115452;1218;124328;-86
2021/09/19 07:56:04;;;;;;;;;;;;;;;17.41;62.80;98074.65;115533;1217;123830;-86
2021/09/19 07:59:09;;;;;;;;;;;;;;;17.52;62.49;98074.38;115495;1216;123694;-86
2021/09/19 08:02:14;;;;;;;;;;;;;;;17.66;62.30;98069.41;115419;1212;123801;-87
2021/09/19 08:05:20;;;;;;;;;;;;;;;17.77;62.13;98069.13;115508;1218;123996;-87
2021/09/19 08:08:26;;;;;;;;;;;;;;;17.80;61.48;98069.36;115471;1218;123752;-87
2021/09/19 08:11:31;;;;;;;;;;;;;;;17.84;61.32;98070.59;115449;1217;123661;-87
2021/09/19 08:14:37;;;;;;;;;;;;;;;17.97;61.26;98068.85;115428;1218;123684;-87
2021/09/19 08:17:23;;;;;;;;;;;;;;;18.06;60.93;98073.82;115422;1211;123609;-86
2021/09/19 08:19:56;;;;;;;;;;;;;;;18.10;60.54;98073.88;115460;1212;124288;-86
2021/09/19 08:25:36;;;;;;;;;;;;;;;18.18;60.04;98073.77;105992;1205;123909;-91
2021/09/19 08:39:52;;;;;;;;;;;;;;;18.63;57.88;98085.08;115618;1206;23053;-90
2021/09/19 08:42:38;;;;;;;;;;;;;;;18.57;57.27;98084.83;115537;1217;123437;-89
2021/09/19 08:56:06;;;;;;;;;;;;;;;19.27;54.37;98089.98;106382;1205;124186;-89
2021/09/19 08:58:33;;;;;;;;;;;;;;;19.44;53.80;98093.06;115539;1216;124735;-87
2021/09/19 09:29:43;;;;;;;;;;;;;;;20.70;48.79;98086.42;115676;1217;22413;-88
2021/09/19 09:59:08;;;;;;;;;;;;;;;20.77;46.61;98058.77;111773;1203;123867;-88
2021/09/19 10:02:13;;;;;;;;;;;;;;;20.61;46.90;98064.41;115616;1216;124012;-88
2021/09/19 10:05:19;;;;;;;;;;;;;;;20.50;46.78;98078.64;115516;1216;123833;-88
2021/09/19 10:08:25;;;;;;;;;;;;;;;20.45;46.88;98081.49;115537;1217;123806;-88
2021/09/19 10:11:32;;;;;;;;;;;;;;;20.47;46.71;98077.61;115536;1217;124024;-89
2021/09/19 10:14:38;;;;;;;;;;;;;;;20.52;46.49;98080.39;115534;1216;123797;-88
2021/09/19 10:17:43;;;;;;;;;;;;;;;20.53;46.21;98072.89;115520;1216;124017;-88
2021/09/19 10:20:50;;;;;;;;;;;;;;;20.51;46.20;98068.65;115518;1216;123841;-88
2021/09/19 10:23:55;;;;;;;;;;;;;;;20.44;46.03;98072.96;115538;1216;124033;-88
2021/09/19 10:26:54;;;;;;;;;;;;;;;20.42;46.27;98069.90;115503;1216;123850;-89
2021/09/19 10:30:00;;;;;;;;;;;;;;;20.48;46.38;98063.79;115483;1216;124266;-88
2021/09/19 10:32:48;;;;;;;;;;;;;;;20.54;46.36;98067.04;115518;1216;123906;-87
2021/09/19 10:35:36;;;;;;;;;;;;;;;20.75;46.34;98061.59;115478;1212;124212;-88
2021/09/19 10:38:42;;;;;;;;;;;;;;;20.97;46.11;98066.52;115444;1217;123829;-88
2021/09/19 10:41:48;;;;;;;;;;;;;;;21.10;46.04;98067.98;115483;1216;124164;-87
2021/09/19 10:44:39;;;;;;;;;;;;;;;21.45;45.80;98060.64;115483;1209;124046;-86
2021/09/19 10:47:24;;;;;;;;;;;;;;;21.73;45.18;98065.14;115522;1216;124581;-88
2021/09/19 10:50:32;;;;;;;;;;;;;;;21.89;44.21;98060.45;115522;1216;124584;-87
2021/09/19 10:53:36;;;;;;;;;;;;;;;22.10;43.50;98061.77;115513;1216;123998;-88
2021/09/19 10:56:41;;;;;;;;;;;;;;;22.31;42.91;98056.91;115526;1216;123954;-87
2021/09/19 10:59:30;;;;;;;;;;;;;;;22.52;42.61;98058.73;115510;1216;123839;-87
2021/09/19 11:01:55;;;;;;;;;;;;;;;22.82;41.95;98051.73;115530;1213;124880;-87
2021/09/19 11:04:32;;;;;;;;;;;;;;;22.98;41.44;98055.14;115546;1212;124240;-91
2021/09/19 11:06:58;;;;;;;;;;;;;;;23.01;40.41;98049.79;115496;1216;123936;-85
2021/09/19 11:09:35;;;;;;;;;;;;;;;22.86;40.42;98048.20;115615;1217;23010;-88
2021/09/19 11:12:08;;;;;;;;;;;;;;;23.01;40.26;98043.67;115520;1213;123837;-86
2021/09/19 11:14:55;;;;;;;;;;;;;;;23.12;39.88;98031.29;115504;1216;124238;-86
2021/09/19 11:17:24;;;;;;;;;;;;;;;23.24;39.84;98032.25;115561;1216;124036;-87
2021/09/19 11:20:13;;;;;;;;;;;;;;;23.09;39.41;98029.58;115523;1216;123978;-87
2021/09/19 11:22:44;;;;;;;;;;;;;;;23.11;39.84;98034.59;115522;1213;124423;-86
2021/09/19 11:25:11;;;;;;;;;;;;;;;23.30;39.71;98035.91;115509;1217;123952;-86
2021/09/19 11:27:38;;;;;;;;;;;;;;;23.58;39.25;98033.53;115609;1216;22384;-86
2021/09/19 11:30:04;;;;;;;;;;;;;;;23.84;38.86;98028.39;115519;1212;124221;-85
2021/09/19 11:32:30;;;;;;;;;;;;;;;24.14;38.53;98024.48;115553;1213;123794;-86
2021/09/19 11:35:00;;;;;;;;;;;;;;;24.49;38.04;98022.58;115495;1216;124258;-86
2021/09/19 11:37:26;;;;;;;;;;;;;;;24.74;36.89;98021.90;115508;1213;124198;-86
2021/09/19 11:39:51;;;;;;;;;;;;;;;24.90;36.33;98017.67;115601;1216;22367;-86
2021/09/19 11:42:18;;;;;;;;;;;;;;;25.08;36.31;98019.90;115548;1213;123755;-86
2021/09/19 11:44:47;;;;;;;;;;;;;;;25.18;35.59;98020.56;115530;1211;125052;-86
2021/09/19 11:47:17;;;;;;;;;;;;;;;25.20;35.40;98014.32;115489;1212;123955;-86
2021/09/19 11:49:43;;;;;;;;;;;;;;;25.30;35.32;98019.77;115505;1215;124418;-86
2021/09/19 11:52:09;;;;;;;;;;;;;;;25.49;35.04;98019.70;115531;1212;123938;-86
2021/09/19 11:54:34;;;;;;;;;;;;;;;25.74;34.64;98011.35;115617;1216;22371;-86
2021/09/19 11:57:01;;;;;;;;;;;;;;;25.94;34.28;98006.39;115502;1212;123686;-87
2021/09/19 11:59:27;;;;;;;;;;;;;;;26.21;34.02;98015.29;115490;1216;123853;-86
2021/09/19 12:01:55;;;;;;;;;;;;;;;26.42;33.36;98016.55;115497;1216;122776;-86
2021/09/19 12:04:21;;;;;;;;;;;;;;;26.48;33.63;98010.13;115451;1210;124378;-87
2021/09/19 12:06:47;;;;;;;;;;;;;;;26.42;33.21;98004.66;115617;1216;22481;-86
2021/09/19 12:09:16;;;;;;;;;;;;;;;26.23;33.13;98003.11;115502;1212;123721;-86
2021/09/19 12:11:41;;;;;;;;;;;;;;;26.31;33.17;98007.38;115542;1212;123744;-86
2021/09/19 12:14:12;;;;;;;;;;;;;;;26.53;33.05;98002.70;115548;1212;123797;-87
2021/09/19 12:16:37;;;;;;;;;;;;;;;26.70;32.73;97999.52;115501;1216;124196;-86
2021/09/19 12:19:03;;;;;;;;;;;;;;;26.79;32.29;98002.02;115548;1213;124084;-86
2021/09/19 12:21:29;;;;;;;;;;;;;;;26.91;32.20;98004.46;115665;1213;23125;-86
2021/09/19 12:23:56;;;;;;;;;;;;;;;26.93;31.90;98004.48;115561;1212;123890;-86
2021/09/19 12:26:22;;;;;;;;;;;;;;;27.03;31.70;97995.98;115513;1212;124294;-86
2021/09/19 12:28:58;;;;;;;;;;;;;;;27.22;31.80;97996.93;115534;1216;122652;-86
2021/09/19 12:31:42;;;;;;;;;;;;;;;27.37;31.43;97994.84;115542;1212;123960;-86
2021/09/19 12:34:11;;;;;;;;;;;;;;;27.38;31.00;97996.00;115525;1217;124062;-86
2021/09/19 12:36:44;;;;;;;;;;;;;;;27.12;30.94;97990.36;115601;1217;23319;-86
2021/09/19 12:39:13;;;;;;;;;;;;;;;27.15;30.99;97991.70;115547;1213;123575;-86
2021/09/19 12:41:39;;;;;;;;;;;;;;;27.29;30.87;97992.52;115490;1217;124132;-86
2021/09/19 12:44:04;;;;;;;;;;;;;;;27.50;30.57;97989.49;115519;1213;123953;-86
2021/09/19 12:46:30;;;;;;;;;;;;;;;27.69;30.09;97995.91;115506;1216;124709;-86
2021/09/19 12:49:00;;;;;;;;;;;;;;;27.85;29.58;97992.84;115614;1212;22360;-86
2021/09/19 12:51:25;;;;;;;;;;;;;;;27.98;29.59;97992.33;115623;1209;22377;-86
2021/09/19 12:53:50;;;;;;;;;;;;;;;27.79;29.28;97983.80;115537;1213;123711;-86
2021/09/19 12:56:17;;;;;;;;;;;;;;;27.89;29.52;97984.34;115570;1216;123919;-86
2021/09/19 12:58:43;;;;;;;;;;;;;;;27.98;29.34;97986.73;115505;1215;124023;-86
2021/09/19 13:01:13;;;;;;;;;;;;;;;28.02;29.09;97987.48;115502;1212;123998;-86
2021/09/19 13:03:39;;;;;;;;;;;;;;;28.08;28.82;97982.88;115644;1215;22473;-86
2021/09/19 13:06:04;;;;;;;;;;;;;;;28.23;28.58;97985.42;115543;1212;123712;-86
2021/09/19 13:08:30;;;;;;;;;;;;;;;28.49;28.37;97985.20;115514;1212;124011;-86
2021/09/19 13:10:56;;;;;;;;;;;;;;;28.65;28.27;97987.45;115541;1215;124104;-86
2021/09/19 13:13:27;;;;;;;;;;;;;;;28.71;27.89;97986.88;115564;1212;123357;-87
2021/09/19 13:15:53;;;;;;;;;;;;;;;28.75;27.75;97992.77;115621;1217;22325;-86
2021/09/19 13:18:19;;;;;;;;;;;;;;;29.04;27.68;97995.75;115518;1216;123516;-86
2021/09/19 13:20:44;;;;;;;;;;;;;;;29.37;27.18;97991.14;115549;1213;123925;-86
2021/09/19 13:23:09;;;;;;;;;;;;;;;29.62;26.49;97995.38;115562;1215;123813;-86
2021/09/19 13:25:35;;;;;;;;;;;;;;;29.76;26.17;97997.52;115489;1216;124316;-87
2021/09/19 13:28:00;;;;;;;;;;;;;;;29.96;26.22;98005.48;115511;1215;123998;-86
2021/09/19 13:30:26;;;;;;;;;;;;;;;30.06;25.39;98003.95;115573;1212;23093;-86
2021/09/19 13:33:24;;;;;;;;;;;;;;;;;;;;;
2021/09/19 13:35:51;;;;;;;;;;;;;;;30.32;25.14;98005.15;115547;1215;123792;-85
2021/09/19 13:38:44;;;;;;;;;;;;;;;30.53;24.77;98002.89;115562;1216;123931;-89
2021/09/19 13:41:39;;;;;;;;;;;;;;;30.74;24.62;97996.17;115617;1216;123814;-90
2021/09/19 13:44:27;;;;;;;;;;;;;;;30.82;24.52;97990.75;115499;1216;123964;-92
2021/09/19 13:52:50;;;;;;;;;;;;;;;30.50;23.86;97988.63;115568;1196;123938;-88
2021/09/19 13:55:17;;;;;;;;;;;;;;;30.47;23.95;97987.88;115544;1213;124107;-89
2021/09/19 13:57:50;;;;;;;;;;;;;;;30.78;23.90;97993.27;115620;1216;22312;-88
2021/09/19 14:00:16;;;;;;;;;;;;;;;31.20;23.53;97989.14;115494;1217;123778;-88
2021/09/19 14:03:01;;;;;;;;;;;;;;;31.72;23.36;97988.70;115482;1217;124020;-88
2021/09/19 14:05:27;;;;;;;;;;;;;;;32.14;22.82;97988.14;115544;1214;123826;-89
2021/09/19 14:07:52;;;;;;;;;;;;;;;32.54;22.16;97986.50;115419;1217;124029;-88
2021/09/19 14:10:20;;;;;;;;;;;;;;;32.84;21.61;97980.27;115408;1211;125691;-88
2021/09/19 14:13:25;;;;;;;;;;;;;;;32.96;21.55;97980.85;115542;1216;124296;-89
2021/09/19 14:16:11;;;;;;;;;;;;;;;32.99;21.32;97988.42;115481;1216;123955;-91
2021/09/19 14:18:37;;;;;;;;;;;;;;;33.22;21.11;97989.58;115766;1212;22362;-89
2021/09/19 14:21:36;;;;;;;;;;;;;;;33.58;20.58;97989.61;115527;1212;123692;-91
2021/09/19 14:24:22;;;;;;;;;;;;;;;33.90;20.32;97985.88;115549;1216;123601;-88
2021/09/19 14:26:50;;;;;;;;;;;;;;;34.41;20.05;97985.89;115551;1213;124021;-90
2021/09/19 14:29:17;;;;;;;;;;;;;;;34.87;19.38;97985.59;115464;1216;123945;-88
2021/09/19 14:32:08;;;;;;;;;;;;;;;35.15;19.22;97986.02;115514;1212;123971;-89
2021/09/19 14:37:54;;;;;;;;;;;;;;;36.29;17.75;97994.64;105710;1202;124069;-89
2021/09/19 14:40:27;;;;;;;;;;;;;;;36.97;17.56;97995.52;115566;1212;124134;-88
2021/09/19 14:43:13;;;;;;;;;;;;;;;37.55;17.17;97994.83;115658;1216;22325;-89
2021/09/19 14:48:33;;;;;;;;;;;;;;;38.96;15.76;97994.29;115574;1208;23217;-85
2021/09/19 14:51:05;;;;;;;;;;;;;;;39.37;15.35;97994.85;115466;1215;123681;-89
2021/09/19 14:54:10;;;;;;;;;;;;;;;39.88;14.37;97990.67;115480;1217;123835;-90
2021/09/19 14:56:57;;;;;;;;;;;;;;;40.21;13.74;97990.29;115471;1218;123896;-89